Terminal Aerodrome Forecast
Issued by NWS

Home | Current Version | Previous Version | Text Only | Print | Product List | Glossary On
Versions: 1 2 3 4 5 6 7 8 9 10 11 12 13
496
FTUS44 KLZK 252320
TAFHRO
TAF
KHRO 252320Z 2600/2624 VRB04KT P6SM VCTS SCT050CB OVC250
     FM260600 VRB03KT P6SM BKN250
      TEMPO 2609/2613 5SM BR
     FM261300 11005KT P6SM VCTS SCT050CB BKN250=

USA.gov is the U.S. government's official web portal to all federal, state and local government web resources and services.